Airfield :
LOGIN :

Register | Disclaimer

   EN    FR    IT 

 










Legend :    VFR   Marginal VFR   IFR   Intensive IFR   Very Intensive IFR
Visi :
Ceiling :
>= 8 km
>= 3000ft
5 to 8 km
1000 to 3000 ft
1500m to 5 km
500 to 1000 ft
800 to 1500m
200 to 500 ft
< 800m
< 200 ft
Symbols :   Thunderstorms  Fog  Heavy snow  Heavy precipitations  Wind > 20 kt
SIGMETs :     Misc.  Thunderstorms  Icing  Turbulence  Mountain Waves  Volcanic Ashes







- Airport Elevation : 529 ft
- IATA code : CHR
- Download approach charts


LFLX - Chateauroux

CURRENT METAR :
  • 191930Z AUTO 16006KT 9999 BKN048 15/13 Q1010 NOSIG

EXPIRED METARs :
  • 191900Z AUTO 19006KT 9999 FEW049 15/13 Q1010 NOSIG
  • 191830Z AUTO 16009KT CAVOK 16/13 Q1010 NOSIG
  • 191800Z AUTO 17007KT 9999 FEW032 16/13 Q1010 NOSIG
  • 191730Z AUTO 19006KT 9999 FEW021 SCT027 BKN036 17/14 Q1010 NOSIG
  • 191700Z AUTO 21007KT 9999 FEW026 OVC042 17/13 Q1010 NOSIG

TAF TAF LFLX
Valid from the 19 at 18:00 until the 21 at 00:00 UTC


191700Z 1918/2024 20010KT 9999 FEW040
TEMPO 2002/2009 20015G25KT 4000 -RA BKN008
No reported NOTAMs for that airfield.
2 SIGMETs reported for the Bordeaux FIR (LFBB) :
 
Severe turbulence
LFBB SIGMET 9 VALID 191800/192200 LFPW
LFBB BORDEAUX FIR/UIR SEV TURB FCST SW OF LINE N4245 E00015 - N4545 W00145 FL220/310 MOV E 30KT WKN=
Embedded thunderstorms
LFBB SIGMET 10 VALID 191900/192100 LFPW
LFBB BORDEAUX FIR/UIR EMBD TS OBS S OF N4345 AND E OF E00215 TOP FL370 STNR NC=



MET'MAP, your aeronautical weather chart ! - Copyright ORBIFLY December 2007 - Disclaimer

ORBIFLY MET'MAP TEAM :

Programming & Development : Alexandra Zaïnal
Concept & Development : Baudouin d'Aumeries
Co-Development & Prog : Marc-Olivier Méhu
Technical & hardware support : Manuel Goepfert

Contact : metmap@orbifly.com




SOURCES & CREDITS :

   NOAA